Gaviota, California
Current Conditions -  °F | °C
As of 4:53 PM on Monday 24 Nov 2014 (Local Time) from KSBA Reporting Station
Clear Clear  
Wind Chill: 68°   Ceiling: Unl
Heat Index: 68°   Visibility: 10mi
Dew Point: 24°   Wind: 6mph
Humidity: 19%   Direction: 260°W
Pressure: 30.21"   Gusts: NA
Location:  34.4816°N, 119.966°W
Report Text: KSBA 250053Z 26005KT 10SM CLR 20/M04 A3021 RMK AO2 SLP231 T02001044
Loading
Personal Weather Stations






























Interactive Weather Map New forecast layout! Learn more

10-Day Weather Forecast

Advertisements
Track Severe Weather on mobile